createdAt,value
2022-12-03T00:02:55.034Z,17.50
2022-12-03T00:07:59.215Z,18.40
2022-12-03T00:12:56.686Z,17.20
2022-12-03T00:17:54.078Z,14.95
2022-12-03T00:22:51.467Z,16.27
2022-12-03T00:27:49.294Z,15.73
2022-12-03T00:32:47.675Z,16.95
2022-12-03T00:37:49.682Z,15.07
2022-12-03T00:42:53.752Z,16.80
2022-12-03T00:47:55.936Z,13.98
2022-12-03T00:52:55.976Z,15.18
2022-12-03T00:57:57.384Z,16.63
2022-12-03T01:02:56.439Z,16.88
2022-12-03T01:08:03.879Z,17.92
2022-12-03T01:13:01.890Z,15.77
2022-12-03T01:17:58.958Z,16.17
2022-12-03T01:22:56.058Z,16.67
2022-12-03T01:27:53.154Z,17.10
2022-12-03T01:32:51.190Z,16.60
2022-12-03T01:37:49.852Z,17.65
2022-12-03T01:42:57.655Z,18.05
2022-12-03T01:47:57.526Z,15.98
2022-12-03T01:53:01.403Z,16.20
2022-12-03T01:58:01.058Z,16.27
2022-12-03T02:03:05.313Z,16.90
2022-12-03T02:08:25.470Z,17.95
2022-12-03T02:13:22.788Z,16.85
2022-12-03T02:18:21.351Z,17.77
2022-12-03T02:23:39.681Z,15.68
2022-12-03T02:28:45.867Z,17.30
2022-12-03T02:33:42.814Z,16.88
2022-12-03T02:38:47.710Z,16.08
2022-12-03T02:43:45.797Z,17.17
2022-12-03T02:48:49.245Z,16.15
2022-12-03T02:53:56.768Z,17.70
2022-12-03T02:59:00.922Z,16.88
2022-12-03T03:04:00.246Z,17.50
2022-12-03T03:08:57.866Z,15.48
2022-12-03T03:13:56.302Z,16.88
2022-12-03T03:18:53.877Z,17.40
2022-12-03T03:23:54.022Z,18.58
2022-12-03T03:28:52.157Z,16.25
2022-12-03T03:33:50.946Z,18.38
2022-12-03T03:38:49.934Z,19.13
2022-12-03T03:43:49.856Z,15.80
2022-12-03T03:48:50.238Z,18.20
2022-12-03T03:53:49.759Z,18.70
2022-12-03T03:58:46.700Z,17.70
2022-12-03T04:03:44.517Z,17.20
2022-12-03T04:08:42.530Z,19.15
2022-12-03T04:13:39.526Z,18.48
2022-12-03T04:18:45.785Z,19.05
2022-12-03T04:23:45.652Z,19.45
2022-12-03T04:28:51.153Z,18.42
2022-12-03T04:34:06.052Z,18.25
2022-12-03T04:39:04.321Z,19.85
2022-12-03T04:44:19.487Z,18.05
2022-12-03T04:49:16.473Z,20.27
2022-12-03T04:54:16.454Z,17.75
2022-12-03T04:59:16.267Z,18.33
2022-12-03T05:04:14.175Z,18.33
2022-12-03T05:09:11.505Z,19.48
2022-12-03T05:14:09.674Z,18.83
2022-12-03T05:19:08.837Z,19.75
2022-12-03T05:24:06.580Z,19.55
2022-12-03T05:29:05.039Z,19.65
2022-12-03T05:34:02.688Z,36.45
2022-12-03T05:39:00.164Z,19.80
2022-12-03T05:44:05.658Z,22.85
2022-12-03T05:49:06.114Z,19.33
2022-12-03T05:54:03.112Z,22.42
2022-12-03T05:59:00.531Z,21.08
2022-12-03T06:04:00.550Z,20.67
2022-12-03T06:08:59.400Z,21.73
2022-12-03T06:13:57.577Z,21.33
2022-12-03T06:18:54.727Z,20.08
2022-12-03T06:23:53.059Z,21.77
2022-12-03T06:28:53.770Z,18.98
2022-12-03T06:33:50.687Z,20.17
2022-12-03T06:38:47.841Z,21.85
2022-12-03T06:43:47.990Z,19.42
2022-12-03T06:48:46.048Z,19.20
2022-12-03T06:53:43.529Z,21.90
2022-12-03T06:58:40.489Z,21.40
2022-12-03T07:03:37.650Z,16.98
2022-12-03T07:08:35.653Z,18.83
2022-12-03T07:13:32.816Z,16.00
2022-12-03T07:18:30.142Z,21.63
2022-12-03T07:23:27.355Z,21.40
2022-12-03T07:28:28.054Z,17.73
2022-12-03T07:33:25.899Z,17.27
2022-12-03T07:38:26.214Z,15.40
2022-12-03T07:43:23.375Z,19.95
2022-12-03T07:48:21.661Z,18.25
2022-12-03T07:53:18.959Z,17.98
2022-12-03T07:58:16.637Z,15.98
2022-12-03T08:03:14.812Z,17.52
2022-12-03T08:08:15.026Z,16.20
2022-12-03T08:13:19.586Z,18.83
2022-12-03T08:18:21.890Z,16.77
2022-12-03T08:23:21.955Z,13.35
2022-12-03T08:28:21.963Z,16.83
2022-12-03T08:33:25.814Z,15.65
2022-12-03T08:38:32.396Z,15.85
2022-12-03T08:43:41.374Z,15.38
2022-12-03T08:48:43.981Z,15.00
2022-12-03T08:53:47.578Z,14.30
2022-12-03T08:58:46.730Z,17.38
2022-12-03T09:03:49.274Z,17.15
2022-12-03T09:08:48.777Z,19.63
2022-12-03T09:13:46.080Z,17.77
2022-12-03T09:18:46.123Z,20.50
2022-12-03T09:23:47.099Z,16.58
2022-12-03T09:28:47.802Z,18.10
2022-12-03T09:33:44.899Z,17.58
2022-12-03T09:38:46.281Z,21.52
2022-12-03T09:49:09.471Z,19.90
2022-12-03T09:54:14.251Z,14.32
2022-12-03T09:59:15.618Z,22.25
2022-12-03T10:04:12.955Z,23.33
2022-12-03T10:09:13.791Z,21.35
2022-12-03T10:14:14.460Z,23.25
2022-12-03T10:19:20.163Z,19.88
2022-12-03T10:24:25.314Z,19.80
2022-12-03T10:29:31.374Z,17.92
2022-12-03T10:34:32.963Z,18.40
2022-12-03T10:39:30.114Z,24.55
2022-12-03T10:44:30.086Z,19.10
2022-12-03T10:49:27.144Z,19.52
2022-12-03T10:54:27.361Z,16.23
2022-12-03T10:59:28.268Z,16.85
2022-12-03T11:04:31.503Z,26.80
2022-12-03T11:09:32.175Z,18.30
2022-12-03T11:15:05.872Z,16.40
2022-12-03T11:20:03.193Z,17.20
2022-12-03T11:25:37.497Z,19.52
2022-12-03T11:31:01.679Z,20.40
2022-12-03T11:36:31.614Z,17.23
2022-12-03T11:41:36.741Z,12.43
2022-12-03T11:46:42.736Z,14.40
2022-12-03T11:51:44.839Z,18.40
2022-12-03T11:56:47.592Z,17.13
2022-12-03T12:01:47.237Z,19.38
2022-12-03T12:06:47.457Z,20.67
2022-12-03T12:11:53.164Z,20.83
2022-12-03T12:16:52.897Z,17.88
2022-12-03T12:21:50.288Z,16.10
2022-12-03T12:26:50.893Z,19.75
2022-12-03T12:31:53.726Z,17.65
2022-12-03T12:36:52.675Z,18.15
2022-12-03T12:41:51.415Z,16.15
2022-12-03T12:46:54.577Z,16.38
2022-12-03T12:51:53.863Z,19.27
2022-12-03T12:56:51.137Z,19.40
2022-12-03T13:01:49.932Z,18.00
2022-12-03T13:06:54.526Z,17.60
2022-12-03T13:11:53.936Z,15.80
2022-12-03T13:16:55.356Z,19.70
2022-12-03T13:21:54.110Z,27.88
2022-12-03T13:26:53.451Z,15.13
2022-12-03T13:31:54.520Z,16.23
2022-12-03T13:36:57.697Z,17.77
2022-12-03T13:42:14.716Z,15.95
2022-12-03T13:47:14.885Z,13.40
2022-12-03T13:52:16.574Z,17.58
2022-12-03T13:57:15.090Z,18.65
2022-12-03T14:02:18.552Z,17.55
2022-12-03T14:07:20.476Z,18.15
2022-12-03T14:12:26.862Z,18.05
2022-12-03T14:17:29.436Z,15.20
2022-12-03T14:22:29.136Z,17.48
2022-12-03T14:27:28.072Z,18.73
2022-12-03T14:32:30.678Z,19.50
2022-12-03T14:37:29.434Z,14.25
2022-12-03T14:42:29.828Z,15.70
2022-12-03T14:47:27.008Z,14.57
2022-12-03T14:52:25.492Z,18.08
2022-12-03T14:57:22.931Z,18.08
2022-12-03T15:02:23.628Z,18.60
2022-12-03T15:07:20.784Z,20.52
2022-12-03T15:12:17.891Z,17.80
2022-12-03T15:17:15.061Z,17.10
2022-12-03T15:22:13.135Z,19.48
2022-12-03T15:27:10.479Z,24.40
2022-12-03T15:32:07.559Z,21.08
2022-12-03T15:37:05.710Z,23.70
2022-12-03T15:42:03.981Z,21.35
2022-12-03T15:47:01.322Z,19.38
2022-12-03T15:52:03.997Z,19.10
2022-12-03T15:57:04.076Z,20.38
2022-12-03T16:02:02.360Z,23.13
2022-12-03T16:07:02.269Z,18.25
2022-12-03T16:12:01.683Z,16.83
2022-12-03T16:17:01.952Z,24.15
2022-12-03T16:22:02.786Z,15.98
2022-12-03T16:26:59.794Z,17.35
2022-12-03T16:31:58.559Z,18.15
2022-12-03T16:36:58.100Z,16.58
2022-12-03T16:41:58.505Z,19.30
2022-12-03T16:46:59.751Z,19.02
2022-12-03T16:52:30.480Z,16.65
2022-12-03T16:57:33.408Z,18.73
2022-12-03T17:02:36.904Z,16.10
2022-12-03T17:07:34.097Z,18.60
2022-12-03T17:12:54.150Z,17.92
2022-12-03T17:17:49.320Z,20.00
2022-12-03T17:22:46.343Z,20.85
2022-12-03T17:27:45.493Z,21.00
2022-12-03T17:32:42.930Z,21.27
2022-12-03T17:37:40.136Z,18.70
2022-12-03T17:42:44.967Z,20.80
2022-12-03T17:47:48.678Z,22.48
2022-12-03T17:52:46.007Z,23.30
2022-12-03T17:57:43.017Z,23.45
2022-12-03T18:02:43.896Z,19.67
2022-12-03T18:07:41.559Z,17.73
2022-12-03T18:12:44.014Z,19.55
2022-12-03T18:17:41.074Z,20.02
2022-12-03T18:22:38.573Z,19.70
2022-12-03T18:27:39.655Z,19.33
2022-12-03T18:32:37.594Z,16.70
2022-12-03T18:37:35.127Z,19.60
2022-12-03T18:42:37.612Z,19.35
2022-12-03T18:47:37.543Z,18.65
2022-12-03T18:52:34.638Z,16.58
2022-12-03T18:57:31.711Z,21.05
2022-12-03T19:03:01.149Z,16.25
2022-12-03T19:07:50.814Z,20.63
2022-12-03T19:12:48.487Z,23.95
2022-12-03T19:17:49.480Z,24.00
2022-12-03T19:22:49.783Z,19.58
2022-12-03T19:27:48.693Z,18.08
2022-12-03T19:32:47.061Z,19.88
2022-12-03T19:37:45.767Z,21.48
2022-12-03T19:42:43.111Z,17.02
2022-12-03T19:47:45.698Z,19.15
2022-12-03T19:52:44.229Z,20.88
2022-12-03T19:57:41.223Z,21.98
2022-12-03T20:02:38.207Z,17.35
2022-12-03T20:07:35.279Z,17.90
2022-12-03T20:12:33.329Z,18.67
2022-12-03T20:17:30.647Z,18.23
2022-12-03T20:22:30.506Z,18.65
2022-12-03T20:27:27.638Z,21.65
2022-12-03T20:32:31.859Z,16.17
2022-12-03T20:37:29.290Z,22.30
2022-12-03T20:42:28.345Z,21.90
2022-12-03T20:47:26.175Z,17.10
2022-12-03T20:52:22.998Z,21.83
2022-12-03T20:57:19.953Z,17.33
2022-12-03T21:02:17.071Z,19.48
2022-12-03T21:07:14.658Z,16.58
2022-12-03T21:12:11.684Z,13.68
2022-12-03T21:17:09.519Z,16.98
2022-12-03T21:22:06.896Z,19.48
2022-12-03T21:27:04.854Z,18.88
2022-12-03T21:32:04.581Z,14.38
2022-12-03T21:37:10.570Z,13.63
2022-12-03T21:42:34.043Z,24.08
2022-12-03T21:47:25.635Z,18.42
2022-12-03T21:52:59.208Z,23.90
2022-12-03T21:58:07.239Z,20.02
2022-12-03T22:03:04.274Z,25.65
2022-12-03T22:08:01.286Z,30.67
2022-12-03T22:12:58.267Z,26.13
2022-12-03T22:17:55.930Z,28.15
2022-12-03T22:22:52.839Z,27.98
2022-12-03T22:27:50.133Z,28.90
2022-12-03T22:32:47.131Z,30.27
2022-12-03T22:37:44.773Z,28.02
2022-12-03T22:42:47.777Z,32.35
2022-12-03T22:47:47.727Z,26.80
2022-12-03T22:52:45.529Z,25.92
2022-12-03T22:57:42.557Z,27.45
2022-12-03T23:02:39.645Z,27.70
2022-12-03T23:07:36.773Z,30.05
2022-12-03T23:12:34.402Z,23.90
2022-12-03T23:17:31.525Z,26.63
2022-12-03T23:22:28.534Z,26.08
2022-12-03T23:27:25.381Z,29.30
2022-12-03T23:32:23.250Z,32.05
2022-12-03T23:37:20.221Z,24.95
2022-12-03T23:42:17.143Z,26.17
2022-12-03T23:47:14.506Z,28.92
2022-12-03T23:52:12.393Z,28.45
2022-12-03T23:57:09.244Z,27.65
